createdAt,value
2023-09-23T00:03:15.097Z,100757.09
2023-09-23T00:08:19.766Z,100742.34
2023-09-23T00:13:23.076Z,100742.69
2023-09-23T00:18:28.222Z,100756.59
2023-09-23T00:23:32.329Z,100753.84
2023-09-23T00:28:35.868Z,100738.81
2023-09-23T00:33:41.280Z,100746.78
2023-09-23T00:38:44.754Z,100747.94
2023-09-23T00:43:49.940Z,100755.72
2023-09-23T00:48:54.881Z,100751.69
2023-09-23T00:53:58.948Z,100751.75
2023-09-23T00:59:02.314Z,100751.22
2023-09-23T01:04:09.552Z,100748.31
2023-09-23T01:09:15.720Z,100753.31
2023-09-23T01:14:22.449Z,100752.25
2023-09-23T01:19:28.250Z,100747.53
2023-09-23T01:24:33.993Z,100772.38
2023-09-23T01:29:38.121Z,100767.72
2023-09-23T01:34:42.141Z,100780.59
2023-09-23T01:39:49.155Z,100775.31
2023-09-23T01:44:52.392Z,100766.25
2023-09-23T01:49:56.016Z,100763.25
2023-09-23T01:55:00.720Z,100756.16
2023-09-23T02:00:05.945Z,100758.94
2023-09-23T02:05:10.234Z,100761.81
2023-09-23T02:10:16.561Z,100756.69
2023-09-23T02:15:19.832Z,100761.97
2023-09-23T02:20:23.641Z,100760.34
2023-09-23T02:25:28.597Z,100773.53
2023-09-23T02:30:33.634Z,100771.66
2023-09-23T02:35:36.932Z,100759.16
2023-09-23T02:40:45.073Z,100767.00
2023-09-23T02:45:50.651Z,100766.28
2023-09-23T02:50:55.039Z,100767.44
2023-09-23T02:56:10.338Z,100766.09
2023-09-23T03:01:16.305Z,100751.56
2023-09-23T03:06:19.748Z,100753.91
2023-09-23T03:11:28.125Z,100757.41
2023-09-23T03:16:31.782Z,100761.50
2023-09-23T03:21:36.601Z,100766.66
2023-09-23T03:26:42.159Z,100775.69
2023-09-23T03:31:45.559Z,100771.50
2023-09-23T03:36:48.885Z,100777.03
2023-09-23T03:41:53.602Z,100772.19
2023-09-23T03:46:56.885Z,100771.59
2023-09-23T03:52:00.670Z,100768.16
2023-09-23T03:57:07.150Z,100773.31
2023-09-23T04:02:10.400Z,100774.75
2023-09-23T04:07:17.398Z,100769.56
2023-09-23T04:12:22.121Z,100770.66
2023-09-23T04:17:26.007Z,100764.47
2023-09-23T04:22:29.280Z,100771.13
2023-09-23T04:27:34.549Z,100765.59
2023-09-23T04:32:40.479Z,100777.41
2023-09-23T04:37:44.001Z,100774.06
2023-09-23T04:42:49.753Z,100789.50
2023-09-23T04:47:53.204Z,100794.34
2023-09-23T04:52:56.489Z,100787.44
2023-09-23T04:58:01.124Z,100796.38
2023-09-23T05:03:04.592Z,100785.41
2023-09-23T05:08:11.089Z,100785.16
2023-09-23T05:13:19.309Z,100802.22
2023-09-23T05:18:24.923Z,100800.69
2023-09-23T05:23:28.313Z,100797.53
2023-09-23T05:28:33.191Z,100805.75
2023-09-23T05:33:36.589Z,100807.47
2023-09-23T05:38:40.078Z,100808.41
2023-09-23T05:43:45.465Z,100815.19
2023-09-23T05:48:50.025Z,100824.84
2023-09-23T05:53:53.267Z,100816.81
2023-09-23T05:58:58.125Z,100817.06
2023-09-23T06:04:01.137Z,100829.44
2023-09-23T06:09:05.210Z,100835.31
2023-09-23T06:14:10.961Z,100849.31
2023-09-23T06:19:14.229Z,100845.72
2023-09-23T06:24:17.455Z,100851.78
2023-09-23T06:29:22.385Z,100848.09
2023-09-23T06:34:25.689Z,100859.69
2023-09-23T06:39:29.065Z,100867.28
2023-09-23T06:44:33.923Z,100879.03
2023-09-23T06:49:36.925Z,100881.47
2023-09-23T06:54:40.191Z,100874.84
2023-09-23T06:59:46.784Z,100878.34
2023-09-23T07:04:50.616Z,100877.47
2023-09-23T07:09:53.898Z,100875.59
2023-09-23T07:14:59.464Z,100891.78
2023-09-23T07:20:03.151Z,100881.09
2023-09-23T07:25:07.521Z,100884.78
2023-09-23T07:30:14.243Z,100900.38
2023-09-23T07:35:19.161Z,100910.41
2023-09-23T07:52:49.245Z,100917.25
2023-09-23T07:57:53.882Z,100919.69
2023-09-23T08:02:57.231Z,100928.38
2023-09-23T08:08:01.978Z,100919.75
2023-09-23T08:13:05.950Z,100937.59
2023-09-23T08:18:09.457Z,100934.94
2023-09-23T08:23:14.167Z,100938.94
2023-09-23T08:28:17.532Z,100938.94
2023-09-23T08:33:21.688Z,100932.97
2023-09-23T08:38:26.572Z,100946.66
2023-09-23T08:43:38.242Z,100941.38
2023-09-23T08:48:41.690Z,100939.38
2023-09-23T08:53:48.861Z,100941.13
2023-09-23T08:58:53.006Z,100945.47
2023-09-23T09:03:56.792Z,100942.25
2023-09-23T09:09:04.593Z,100952.16
2023-09-23T09:14:08.644Z,100943.25
2023-09-23T09:19:12.916Z,100952.16
2023-09-23T09:24:18.309Z,100957.00
2023-09-23T09:29:21.746Z,100952.13
2023-09-23T09:34:27.283Z,100947.25
2023-09-23T09:39:35.789Z,100952.38
2023-09-23T09:44:39.610Z,100951.09
2023-09-23T09:49:44.200Z,100939.41
2023-09-23T09:54:49.639Z,100929.00
2023-09-23T09:59:54.328Z,100937.84
2023-09-23T10:05:04.984Z,100935.97
2023-09-23T10:10:14.928Z,100932.06
2023-09-23T10:15:27.342Z,100943.66
2023-09-23T10:20:35.589Z,100931.47
2023-09-23T10:25:44.604Z,100927.63
2023-09-23T10:30:58.821Z,100920.09
2023-09-23T10:36:03.013Z,100921.09
2023-09-23T10:41:07.875Z,100915.41
2023-09-23T10:46:12.027Z,100923.75
2023-09-23T10:51:16.829Z,100910.34
2023-09-23T10:56:24.123Z,100904.13
2023-09-23T11:01:27.620Z,100902.34
2023-09-23T11:06:31.777Z,100897.47
2023-09-23T11:11:38.507Z,100895.00
2023-09-23T11:16:46.138Z,100891.19
2023-09-23T11:21:49.724Z,100888.56
2023-09-23T11:26:55.748Z,100880.56
2023-09-23T11:31:59.280Z,100875.72
2023-09-23T11:37:02.855Z,100859.25
2023-09-23T11:42:07.740Z,100857.44
2023-09-23T16:37:37.343Z,100635.38
2023-09-23T16:42:40.581Z,100637.47
2023-09-23T16:47:45.318Z,100631.91
2023-09-23T16:52:50.176Z,100637.88
2023-09-23T16:57:53.431Z,100638.88
2023-09-23T17:02:56.710Z,100635.63
2023-09-23T17:08:01.506Z,100648.84
2023-09-23T17:13:04.805Z,100641.66
2023-09-23T17:18:09.016Z,100655.00
2023-09-23T17:23:13.850Z,100664.03
2023-09-23T17:28:17.110Z,100653.97
2023-09-23T17:33:20.591Z,100655.53
2023-09-23T17:38:25.565Z,100662.03
2023-09-23T17:43:28.807Z,100661.19
2023-09-23T17:48:32.067Z,100667.53
2023-09-23T17:53:36.920Z,100666.03
2023-09-23T17:58:40.193Z,100665.97
2023-09-23T18:03:44.256Z,100671.56
2023-09-23T18:08:49.199Z,100674.31
2023-09-23T18:13:52.686Z,100682.03
2023-09-23T18:18:56.161Z,100689.66
2023-09-23T18:24:00.913Z,100695.56
2023-09-23T18:29:04.725Z,100700.84
2023-09-23T18:34:09.106Z,100708.22
2023-09-23T18:39:13.735Z,100716.44
2023-09-23T18:44:17.002Z,100718.47
2023-09-23T18:49:20.237Z,100713.47
2023-09-23T18:54:25.141Z,100719.78
2023-09-23T18:59:29.557Z,100727.63
2023-09-23T19:04:33.688Z,100732.53
2023-09-23T19:09:40.853Z,100741.56
2023-09-23T19:14:44.115Z,100744.25
2023-09-23T19:19:47.975Z,100756.22
2023-09-23T19:24:52.924Z,100757.03
2023-09-23T19:29:56.354Z,100761.97
2023-09-23T19:35:00.677Z,100774.72
2023-09-23T19:40:06.469Z,100781.59
2023-09-23T19:45:10.774Z,100782.88
2023-09-23T19:50:15.157Z,100790.63
2023-09-23T19:55:20.682Z,100796.25
2023-09-23T20:00:29.351Z,100794.91
2023-09-23T20:05:32.762Z,100787.13
2023-09-23T20:10:38.049Z,100799.03
2023-09-23T20:15:42.009Z,100811.28
2023-09-23T20:20:49.243Z,100811.19
2023-09-23T20:25:54.038Z,100815.00
2023-09-23T20:31:00.570Z,100815.94
2023-09-23T20:36:04.488Z,100825.63
2023-09-23T20:41:09.167Z,100824.19
2023-09-23T20:46:12.624Z,100823.22
2023-09-23T20:51:17.763Z,100821.88
2023-09-23T20:56:22.402Z,100821.53
2023-09-23T21:01:25.805Z,100826.03
2023-09-23T21:06:29.482Z,100823.88
2023-09-23T21:11:36.336Z,100824.19
2023-09-23T21:16:39.573Z,100815.00
2023-09-23T21:21:42.743Z,100817.97
2023-09-23T21:26:47.363Z,100818.94
2023-09-23T21:31:50.602Z,100811.91
2023-09-23T21:36:53.866Z,100814.47
2023-09-23T21:41:58.463Z,100818.44
2023-09-23T21:47:01.426Z,100815.16
2023-09-23T21:52:04.777Z,100813.06
2023-09-23T21:57:09.451Z,100820.97
2023-09-23T22:02:12.654Z,100818.41
2023-09-23T22:07:15.853Z,100814.69
2023-09-23T22:12:20.472Z,100821.84
2023-09-23T22:17:26.873Z,100822.16
2023-09-23T22:22:30.537Z,100815.81
2023-09-23T22:27:35.290Z,100815.72
2023-09-23T22:32:38.681Z,100819.78
2023-09-23T22:37:42.827Z,100814.38
2023-09-23T22:42:48.270Z,100816.28
2023-09-23T22:47:51.851Z,100821.66
2023-09-23T22:52:55.614Z,100824.03
2023-09-23T22:58:00.664Z,100826.63
2023-09-23T23:03:05.152Z,100824.56
2023-09-23T23:08:09.365Z,100821.50
2023-09-23T23:13:14.139Z,100821.41
2023-09-23T23:18:17.650Z,100819.41
2023-09-23T23:23:20.925Z,100814.47
2023-09-23T23:28:26.541Z,100808.00
2023-09-23T23:33:30.296Z,100795.44
2023-09-23T23:38:33.484Z,100808.81
2023-09-23T23:43:38.063Z,100798.38
2023-09-23T23:48:41.243Z,100797.53
2023-09-23T23:53:44.535Z,100808.06
2023-09-23T23:58:49.318Z,100800.06
